Time;durP1;ratioP1;P1;durP2;ratioP2;P2;SDS_P1;SDS_P2;PMS_P1;PMS_P2;Temp;Humidity;BMP_temperature;BMP_pressure;BME280_temperature;BME280_humidity;BME280_pressure;Samples;Min_cycle;Max_cycle;Signal;HPM_P1;HPM_P2
2021/08/03 00:00:53;;;;;;;4.83;1.60;;;;;;;12.26;73.10;99046.09;1760568;80;20942;-61
2021/08/03 00:03:38;;;;;;;3.52;1.35;;;;;;;12.26;73.14;99053.11;1755816;80;21427;-61
2021/08/03 00:06:13;;;;;;;4.15;1.70;;;;;;;12.23;73.13;99048.91;1763348;80;21699;-62
2021/08/03 00:08:44;;;;;;;3.40;1.35;;;;;;;12.21;73.27;99050.81;1756477;80;21537;-62
2021/08/03 00:11:11;;;;;;;4.75;1.35;;;;;;;12.21;73.29;99056.04;1764704;80;20944;-61
2021/08/03 00:13:39;;;;;;;4.28;1.30;;;;;;;12.18;73.34;99052.76;1763295;80;20914;-61
2021/08/03 00:16:08;;;;;;;;;;;;;;;12.17;73.42;99053.23;1763702;80;20916;-61
2021/08/03 00:18:41;;;;;;;5.22;1.60;;;;;;;12.17;73.57;99049.31;1763510;80;21086;-62
2021/08/03 00:21:11;;;;;;;3.90;1.40;;;;;;;12.17;73.54;99049.31;1763306;80;20969;-62
2021/08/03 00:23:47;;;;;;;2.80;1.65;;;;;;;12.20;73.66;99049.11;1763308;80;20899;-61
2021/08/03 00:26:16;;;;;;;5.42;1.10;;;;;;;12.18;73.65;99048.36;1756192;80;20932;-62
2021/08/03 00:28:51;;;;;;;2.60;1.67;;;;;;;12.17;73.69;99054.54;1743133;81;21437;-61
2021/08/03 00:31:16;;;;;;;3.50;1.27;;;;;;;12.18;73.78;99054.06;1709635;81;21067;-61
2021/08/03 00:33:46;;;;;;;1.67;1.15;;;;;;;12.21;73.86;99063.89;1731220;81;21536;-61
2021/08/03 00:36:14;;;;;;;2.75;1.30;;;;;;;12.20;73.94;99056.95;1683425;81;20940;-62
2021/08/03 00:38:41;;;;;;;6.37;1.80;;;;;;;12.21;73.98;99050.81;1725059;82;21450;-62
2021/08/03 00:41:18;;;;;;;3.67;1.20;;;;;;;12.22;74.00;99055.09;1725641;81;21494;-62
2021/08/03 00:43:45;;;;;;;2.72;1.00;;;;;;;12.21;74.04;99050.81;1750991;81;21028;-61
2021/08/03 00:46:11;;;;;;;5.80;1.40;;;;;;;12.20;74.08;99058.27;1730782;81;21473;-62
2021/08/03 00:48:42;;;;;;;3.65;1.12;;;;;;;12.19;74.16;99063.14;1733878;81;20893;-61
2021/08/03 00:51:11;;;;;;;10.28;2.25;;;;;;;12.20;74.27;99064.81;1730850;81;20960;-62
2021/08/03 00:53:43;;;;;;;4.37;1.92;;;;;;;12.19;74.30;99055.29;1727204;81;20956;-62
2021/08/03 00:56:10;;;;;;;3.27;1.55;;;;;;;12.19;74.34;99057.91;1725964;81;21145;-61
2021/08/03 00:58:39;;;;;;;5.90;1.20;;;;;;;12.18;74.40;99057.52;1733701;81;21472;-62
2021/08/03 01:01:06;;;;;;;2.47;1.52;;;;;;;12.17;74.47;99066.32;1723628;81;20888;-61
2021/08/03 01:03:33;;;;;;;3.30;1.20;;;;;;;12.15;74.49;99065.57;1730181;81;20924;-61
2021/08/03 01:06:11;;;;;;;6.47;1.98;;;;;;;12.12;74.62;99081.47;1738392;81;20960;-61
2021/08/03 01:09:07;;;;;;;3.37;1.47;;;;;;;12.12;74.62;99081.47;1726826;82;21977;-61
2021/08/03 01:11:56;;;;;;;7.75;1.35;;;;;;;12.10;74.62;99078.13;1744403;80;20915;-61
2021/08/03 01:14:31;;;;;;;3.40;1.30;;;;;;;12.06;74.72;99077.94;1745997;81;20934;-61
2021/08/03 01:17:18;;;;;;;2.55;1.20;;;;;;;12.03;74.76;99078.97;1751227;81;20929;-61
2021/08/03 01:20:25;;;;;;;4.85;1.25;;;;;;;12.01;74.82;99076.08;1751631;81;20857;-61
2021/08/03 01:23:20;;;;;;;3.17;1.55;;;;;;;12.00;74.89;99078.34;1721848;81;21093;-61
2021/08/03 01:26:16;;;;;;;3.17;2.00;;;;;;;11.98;75.04;99072.35;1744470;81;20918;-61
2021/08/03 01:28:54;;;;;;;2.45;1.35;;;;;;;11.98;75.10;99073.66;1730422;81;20930;-62
2021/08/03 01:31:33;;;;;;;4.37;1.50;;;;;;;11.97;75.12;99081.15;1749511;81;20914;-61
2021/08/03 01:34:07;;;;;;;4.42;1.40;;;;;;;11.96;75.18;99080.76;1740312;79;20922;-61
2021/08/03 01:36:41;;;;;;;2.30;1.30;;;;;;;11.94;75.26;99081.34;1712149;80;20938;-61
2021/08/03 01:39:09;;;;;;;4.05;1.55;;;;;;;11.92;75.41;99086.66;1748458;80;20887;-61
2021/08/03 01:41:37;;;;;;;3.17;1.35;;;;;;;11.90;75.42;99092.45;1745137;81;20910;-61
2021/08/03 01:44:07;;;;;;;5.40;1.87;;;;;;;11.89;75.44;99095.18;1746172;81;21827;-61
2021/08/03 01:46:35;;;;;;;5.58;1.42;;;;;;;11.86;75.53;99094.42;1723876;81;21452;-61
2021/08/03 01:49:03;;;;;;;5.12;1.40;;;;;;;11.83;75.53;99093.28;1747162;81;21072;-62
2021/08/03 01:51:32;;;;;;;4.08;1.30;;;;;;;11.82;75.63;99088.99;1758181;80;20960;-61
2021/08/03 01:53:59;;;;;;;6.53;1.62;;;;;;;11.80;75.67;99093.47;1745124;81;20947;-61
2021/08/03 01:56:26;;;;;;;2.47;1.22;;;;;;;11.79;75.73;99100.96;1748565;81;20910;-62
2021/08/03 01:58:53;;;;;;;4.10;1.30;;;;;;;11.77;75.80;99101.52;1744491;81;20872;-61
2021/08/03 02:01:21;;;;;;;4.33;1.40;;;;;;;11.75;75.81;99105.99;1751793;80;21284;-61
2021/08/03 02:03:49;;;;;;;3.12;1.20;;;;;;;11.75;75.90;99105.99;1750818;80;21771;-61
2021/08/03 02:06:18;;;;;;;5.55;1.55;;;;;;;11.74;75.95;99113.47;1775489;79;20910;-61
2021/08/03 02:08:46;;;;;;;2.98;1.47;;;;;;;11.73;75.99;99113.08;1756584;81;20930;-62
2021/08/03 02:11:13;;;;;;;2.72;1.30;;;;;;;11.72;76.05;99119.26;1764593;80;20903;-61
2021/08/03 02:13:40;;;;;;;3.58;1.92;;;;;;;11.70;76.10;99118.50;1762609;80;21005;-62
2021/08/03 02:16:07;;;;;;;1.95;1.32;;;;;;;11.70;76.17;99119.81;1754525;80;20967;-61
2021/08/03 02:18:33;;;;;;;5.72;1.60;;;;;;;11.69;76.22;99115.53;1753984;80;20998;-62
2021/08/03 02:21:00;;;;;;;2.22;1.60;;;;;;;11.69;76.27;99123.38;1736618;80;21464;-61
2021/08/03 02:23:27;;;;;;;4.28;1.42;;;;;;;11.67;76.34;99122.62;1758258;80;21015;-61
2021/08/03 02:25:53;;;;;;;3.77;1.40;;;;;;;11.64;76.43;99120.20;1756367;80;21041;-61
2021/08/03 02:28:20;;;;;;;4.05;1.40;;;;;;;11.64;76.43;99120.20;1754337;80;21436;-62
2021/08/03 02:30:50;;;;;;;2.47;1.37;;;;;;;11.62;76.45;99120.75;1753432;80;20909;-61
2021/08/03 02:33:29;;;;;;;4.70;1.77;;;;;;;11.58;76.50;99120.10;1753652;80;21063;-62
2021/08/03 02:36:01;;;;;;;3.50;2.02;;;;;;;11.57;76.61;99127.59;1719265;81;20904;-61
2021/08/03 02:38:31;;;;;;;2.87;1.72;;;;;;;11.58;76.70;99129.73;1733664;81;21126;-61
2021/08/03 02:40:58;;;;;;;5.42;1.27;;;;;;;11.58;76.70;99129.73;1708903;81;20911;-61
2021/08/03 02:43:27;;;;;;;4.72;1.60;;;;;;;11.57;76.76;99131.98;1754040;81;20875;-61
2021/08/03 02:46:01;;;;;;;5.25;1.82;;;;;;;11.57;76.82;99133.28;1737151;81;20905;-62
2021/08/03 02:48:26;;;;;;;4.08;1.67;;;;;;;11.58;76.89;99134.95;1724548;81;21472;-61
2021/08/03 02:50:54;;;;;;;5.72;1.82;;;;;;;11.59;76.95;99129.62;1730437;81;21003;-61
2021/08/03 02:53:25;;;;;;;;;;;;;;;11.62;77.02;99139.05;1734241;80;20885;-62
2021/08/03 02:55:59;;;;;;;4.20;2.17;;;;;;;11.63;77.18;99142.06;1737550;81;20141;-62
2021/08/03 02:58:31;;;;;;;3.72;1.62;;;;;;;11.63;77.11;99135.52;1738471;81;20911;-62
2021/08/03 03:00:59;;;;;;;3.17;1.75;;;;;;;11.65;77.15;99148.88;1725897;81;20877;-62
2021/08/03 03:03:29;;;;;;;5.50;1.85;;;;;;;11.67;77.18;99157.92;1747997;80;21007;-62
2021/08/03 03:06:06;;;;;;;3.10;1.77;;;;;;;11.69;77.25;99150.83;1754943;80;20904;-62
2021/08/03 03:08:35;;;;;;;2.17;1.22;;;;;;;11.73;77.29;99149.70;1754329;80;20868;-61
2021/08/03 03:11:06;;;;;;;2.35;1.70;;;;;;;11.76;77.33;99153.91;1743755;81;20902;-62
2021/08/03 03:13:52;;;;;;;2.95;1.95;;;;;;;11.76;77.44;99154.77;1733515;81;20919;-61
2021/08/03 03:16:21;;;;;;;4.75;1.40;;;;;;;11.79;77.42;99157.19;1742009;81;21011;-61
2021/08/03 03:18:48;;;;;;;3.58;1.70;;;;;;;11.83;77.50;99157.37;1751138;81;20901;-62
2021/08/03 03:21:21;;;;;;;2.92;1.50;;;;;;;11.90;77.60;99160.94;1728835;81;20960;-61
2021/08/03 03:23:54;;;;;;;3.58;1.40;;;;;;;11.97;77.60;99159.64;1737288;81;20980;-62
2021/08/03 03:26:27;;;;;;;3.52;1.45;;;;;;;12.02;77.63;99158.89;1734936;81;20936;-62
2021/08/03 03:28:56;;;;;;;9.48;2.92;;;;;;;12.14;77.86;99163.34;1732814;81;21058;-61
2021/08/03 03:31:29;;;;;;;4.33;1.60;;;;;;;12.70;78.31;99154.95;1723681;81;20934;-62
2021/08/03 03:34:00;;;;;;;5.40;1.57;;;;;;;13.52;78.11;99157.44;1712178;81;20906;-62
2021/08/03 03:36:30;;;;;;;4.17;1.22;;;;;;;14.32;77.84;99155.33;1735387;81;21004;-62
2021/08/03 03:39:00;;;;;;;4.70;1.40;;;;;;;15.12;77.43;99160.02;1738055;81;21441;-62
2021/08/03 03:41:29;;;;;;;4.47;1.60;;;;;;;15.92;77.09;99160.53;1735543;81;21112;-62
2021/08/03 03:43:56;;;;;;;3.12;1.30;;;;;;;16.59;76.48;99161.73;1741622;81;20879;-62
2021/08/03 03:46:31;;;;;;;9.83;1.70;;;;;;;17.28;76.19;99161.83;1733689;81;20880;-62
2021/08/03 03:49:15;;;;;;;6.17;1.50;;;;;;;17.87;75.86;99161.23;1734464;81;20876;-62
2021/08/03 03:51:43;;;;;;;3.70;1.80;;;;;;;18.60;75.64;99160.53;1711535;81;20958;-63
2021/08/03 03:54:14;;;;;;;3.45;1.55;;;;;;;19.30;74.93;99165.21;1742274;81;21143;-62
2021/08/03 03:56:44;;;;;;;6.25;1.75;;;;;;;19.86;74.59;99163.07;1742800;81;20978;-63
2021/08/03 03:59:12;;;;;;;4.37;1.65;;;;;;;20.46;74.29;99159.14;1736528;81;20957;-62
2021/08/03 04:01:40;;;;;;;5.87;1.60;;;;;;;20.96;73.49;99158.16;1734906;81;20941;-62
2021/08/03 04:04:11;;;;;;;7.12;1.72;;;;;;;21.46;73.33;99159.41;1739269;81;21515;-62
2021/08/03 04:06:39;;;;;;;9.38;1.87;;;;;;;22.02;72.98;99156.73;1742309;81;21846;-62
2021/08/03 04:09:09;;;;;;;4.65;1.70;;;;;;;22.49;72.15;99161.58;1735814;81;20898;-63
2021/08/03 04:11:45;;;;;;;5.53;1.77;;;;;;;22.83;71.77;99163.30;1736658;81;20867;-63
2021/08/03 04:14:16;;;;;;;3.80;1.55;;;;;;;23.13;71.13;99161.00;1735655;81;20916;-63
2021/08/03 04:16:43;;;;;;;7.72;1.87;;;;;;;23.60;71.07;99167.78;1706837;81;20928;-63
2021/08/03 04:19:09;;;;;;;;;;;;;;;24.14;70.52;99165.81;1740448;81;21555;-63
2021/08/03 04:21:36;;;;;;;;;;;;;;;24.61;69.43;99160.11;1737539;81;20102;-63
2021/08/03 04:24:03;;;;;;;10.28;2.12;;;;;;;25.13;68.81;99161.56;1742541;81;20095;-63
2021/08/03 04:26:30;;;;;;;3.98;1.47;;;;;;;25.47;68.85;99162.96;1735792;81;20931;-63
2021/08/03 04:28:57;;;;;;;23.95;3.08;;;;;;;25.83;68.23;99155.61;1735731;81;20908;-63
2021/08/03 04:31:24;;;;;;;12.55;1.70;;;;;;;26.12;67.74;99160.92;1736840;81;21905;-63
2021/08/03 04:33:52;;;;;;;;;;;;;;;26.18;66.47;99165.20;1735462;81;20904;-63
2021/08/03 04:36:18;;;;;;;9.63;1.80;;;;;;;25.58;65.83;99170.53;1726797;81;20437;-63
2021/08/03 04:38:45;;;;;;;11.22;2.35;;;;;;;25.63;66.05;99176.17;1731232;81;20929;-63
2021/08/03 04:41:11;;;;;;;;;;;;;;;25.93;66.13;99165.50;1728900;82;20966;-63
2021/08/03 04:43:41;;;;;;;;;;;;;;;26.41;64.95;99172.61;1729644;81;21892;-63
2021/08/03 04:46:06;;;;;;;35.70;5.08;;;;;;;26.82;64.22;99176.06;1720758;82;20145;-63
2021/08/03 04:48:33;;;;;;;146.05;14.90;;;;;;;27.27;64.48;99171.34;1724659;82;20941;-63
2021/08/03 04:51:00;;;;;;;42.58;5.17;;;;;;;27.71;63.83;99171.58;1726850;82;21477;-63
2021/08/03 04:53:26;;;;;;;159.63;22.07;;;;;;;28.11;62.71;99169.13;1724588;82;20964;-63
2021/08/03 04:55:53;;;;;;;16.50;4.55;;;;;;;28.30;62.36;99168.91;1725295;82;21038;-63
2021/08/03 04:58:20;;;;;;;53.42;13.03;;;;;;;28.53;62.43;99173.98;1723535;82;20887;-64
2021/08/03 05:00:46;;;;;;;48.23;8.43;;;;;;;29.00;61.21;99174.91;1722041;82;20916;-63
2021/08/03 05:03:14;;;;;;;59.67;14.40;;;;;;;28.26;59.55;99176.55;1702311;82;21407;-63
2021/08/03 05:05:41;;;;;;;42.25;9.23;;;;;;;27.01;59.04;99174.09;1728172;82;21490;-63
2021/08/03 05:08:07;;;;;;;71.42;10.35;;;;;;;25.84;59.21;99179.98;1723587;82;21040;-63
2021/08/03 05:10:36;;;;;;;;;;;;;;;24.83;59.08;99182.50;1729613;82;20952;-63
2021/08/03 05:13:03;;;;;;;89.22;9.88;;;;;;;23.87;58.91;99188.42;1722742;82;20454;-62
2021/08/03 05:15:31;;;;;;;133.52;13.75;;;;;;;22.95;58.98;99190.43;1732487;82;20948;-63
2021/08/03 05:17:58;;;;;;;64.00;7.03;;;;;;;22.13;58.94;99191.51;1727034;82;20950;-62
2021/08/03 05:20:25;;;;;;;81.00;7.37;;;;;;;21.51;58.94;99192.98;1732361;82;21046;-62
2021/08/03 05:22:51;;;;;;;249.58;25.62;;;;;;;21.06;59.18;99204.55;1722904;82;20950;-62
2021/08/03 05:25:18;;;;;;;12.28;3.10;;;;;;;20.73;59.33;99209.53;1722523;82;20937;-62
2021/08/03 05:27:45;;;;;;;5.85;1.87;;;;;;;20.49;59.17;99211.88;1724725;82;20922;-62
2021/08/03 05:30:12;;;;;;;22.55;2.52;;;;;;;20.19;59.26;99219.12;1727998;82;20930;-62
2021/08/03 05:32:39;;;;;;;19.32;3.22;;;;;;;19.88;59.25;99214.11;1720832;82;21065;-62
2021/08/03 05:35:08;;;;;;;43.13;5.92;;;;;;;19.56;59.31;99221.53;1730874;81;26580;-62
2021/08/03 05:37:36;;;;;;;59.55;10.13;;;;;;;19.29;59.28;99216.46;1736455;82;20967;-62
2021/08/03 05:40:08;;;;;;;32.08;5.00;;;;;;;18.96;59.34;99223.86;1729725;82;20999;-62
2021/08/03 05:42:33;;;;;;;132.03;19.05;;;;;;;18.68;59.52;99220.63;1729969;82;20936;-62
2021/08/03 05:45:00;;;;;;;89.92;8.85;;;;;;;18.52;59.77;99223.33;1724910;82;21721;-62
2021/08/03 05:47:27;;;;;;;53.15;5.62;;;;;;;18.39;59.88;99226.69;1728023;82;20912;-62
2021/08/03 05:49:53;;;;;;;30.12;4.08;;;;;;;18.17;59.92;99226.89;1726331;82;20924;-61
2021/08/03 05:52:20;;;;;;;100.00;9.00;;;;;;;18.01;60.04;99225.58;1733240;82;20947;-62
2021/08/03 05:54:47;;;;;;;74.10;6.33;;;;;;;17.89;60.20;99227.94;1733001;82;20959;-62
2021/08/03 05:57:14;;;;;;;;;;;;;;;17.75;60.28;99240.13;1735061;82;21021;-62
2021/08/03 05:59:40;;;;;;;20.52;2.22;;;;;;;17.59;60.41;99232.20;1724524;81;20094;-62
2021/08/03 06:02:07;;;;;;;13.68;1.90;;;;;;;17.39;60.46;99232.55;1726972;82;20908;-61
2021/08/03 06:04:34;;;;;;;6.25;1.35;;;;;;;17.23;60.44;99226.87;1726017;81;20915;-61
2021/08/03 06:07:03;;;;;;;13.78;1.40;;;;;;;17.04;60.69;99231.98;1731560;82;20948;-62
2021/08/03 06:09:32;;;;;;;63.75;4.62;;;;;;;16.93;61.05;99236.31;1726310;81;21889;-61
2021/08/03 06:12:02;;;;;;;5.85;1.50;;;;;;;16.97;61.23;99242.17;1695997;82;20898;-61
2021/08/03 06:14:44;;;;;;;2.40;1.25;;;;;;;17.02;61.42;99242.64;1720783;81;21422;-61
2021/08/03 06:17:15;;;;;;;21.48;2.22;;;;;;;17.09;61.55;99245.63;1733074;81;20951;-61
2021/08/03 06:19:50;;;;;;;9.43;1.42;;;;;;;17.14;61.54;99254.84;1732136;81;20919;-61
2021/08/03 06:22:18;;;;;;;5.05;1.30;;;;;;;17.15;61.56;99251.23;1730857;81;21019;-61
2021/08/03 06:24:50;;;;;;;5.95;1.45;;;;;;;17.16;61.63;99252.06;1734200;82;20903;-61
2021/08/03 06:27:20;;;;;;;9.15;1.22;;;;;;;17.10;61.86;99250.77;1733501;81;20938;-61
2021/08/03 06:29:49;;;;;;;13.68;1.45;;;;;;;17.16;62.10;99263.45;1731637;81;20969;-61
2021/08/03 06:32:15;;;;;;;36.80;2.60;;;;;;;17.17;62.06;99254.59;1737012;81;21468;-61
2021/08/03 06:34:44;;;;;;;7.62;1.40;;;;;;;17.26;62.29;99258.76;1734460;81;21274;-61
2021/08/03 06:37:12;;;;;;;5.78;1.37;;;;;;;17.34;62.25;99262.92;1744535;81;20936;-61
2021/08/03 06:39:40;;;;;;;69.85;5.65;;;;;;;17.32;62.34;99265.67;1743652;81;20929;-61
2021/08/03 06:42:51;;;;;;;21.45;2.90;;;;;;;17.33;62.36;99267.34;1745214;81;20946;-63
2021/08/03 06:45:30;;;;;;;45.92;3.90;;;;;;;17.34;62.51;99268.20;1743488;81;20950;-63
2021/08/03 06:48:12;;;;;;;9.73;1.72;;;;;;;17.33;62.58;99266.50;1748493;81;21068;-64
2021/08/03 06:50:56;;;;;;;7.12;2.00;;;;;;;17.27;62.76;99267.02;1743041;81;20961;-63
2021/08/03 06:53:26;;;;;;;26.87;3.10;;;;;;;17.31;62.83;99265.78;1749453;81;20942;-62
2021/08/03 06:55:59;;;;;;;11.93;1.87;;;;;;;17.26;62.96;99266.67;1743534;81;20943;-62
2021/08/03 06:58:48;;;;;;;7.33;1.30;;;;;;;17.32;63.07;99270.13;1746130;81;21487;-62
2021/08/03 07:01:19;;;;;;;11.80;2.00;;;;;;;17.47;63.28;99266.20;1741303;81;21746;-63
2021/08/03 07:03:49;;;;;;;50.67;4.78;;;;;;;17.70;63.43;99263.44;1743157;81;20975;-62
2021/08/03 07:06:18;;;;;;;18.40;2.33;;;;;;;17.85;63.38;99259.55;1744116;81;20866;-62
2021/08/03 07:08:45;;;;;;;25.77;4.33;;;;;;;18.01;63.26;99261.25;1743453;81;20924;-63
2021/08/03 07:11:14;;;;;;;17.65;2.50;;;;;;;18.18;63.43;99265.58;1744891;81;20973;-62
2021/08/03 07:13:42;;;;;;;25.30;3.42;;;;;;;18.30;63.35;99269.78;1715814;81;21100;-62
2021/08/03 07:16:09;;;;;;;187.97;12.18;;;;;;;18.35;63.30;99271.55;1748832;81;20898;-62
2021/08/03 07:18:37;;;;;;;102.82;9.90;;;;;;;18.37;63.23;99273.55;1716995;81;20919;-63
2021/08/03 07:21:05;;;;;;;140.95;12.80;;;;;;;18.49;63.38;99278.28;1744596;81;20919;-62
2021/08/03 07:23:33;;;;;;;113.88;10.08;;;;;;;18.54;63.21;99286.17;1713500;81;21092;-62
2021/08/03 07:26:00;;;;;;;103.22;12.75;;;;;;;18.49;63.18;99283.08;1708010;81;21012;-62
2021/08/03 07:28:29;;;;;;;150.78;20.92;;;;;;;18.50;63.29;99290.03;1745844;81;21405;-62
2021/08/03 07:30:56;;;;;;;28.02;3.70;;;;;;;18.42;63.00;99284.57;1747544;81;20946;-63
2021/08/03 07:33:22;;;;;;;94.92;9.33;;;;;;;18.35;63.17;99291.38;1746499;81;20904;-63
2021/08/03 07:35:49;;;;;;;49.05;4.53;;;;;;;18.22;63.25;99293.39;1739406;81;21415;-63
2021/08/03 07:38:16;;;;;;;35.25;4.35;;;;;;;18.27;63.57;99285.91;1740546;81;21106;-63
2021/08/03 07:40:43;;;;;;;12.07;2.15;;;;;;;18.39;63.54;99284.84;1736394;81;20920;-63
2021/08/03 07:43:10;;;;;;;7.95;2.47;;;;;;;18.54;63.48;99284.84;1741182;81;20909;-63
2021/08/03 07:45:38;;;;;;;23.62;2.77;;;;;;;18.67;63.51;99293.02;1737225;81;20944;-63
2021/08/03 07:48:10;;;;;;;9.68;2.17;;;;;;;18.78;63.33;99291.61;1720271;81;21489;-63
2021/08/03 07:50:37;;;;;;;15.53;2.62;;;;;;;18.81;63.12;99305.89;1739204;81;21070;-63
2021/08/03 07:53:04;;;;;;;8.18;1.70;;;;;;;18.79;63.13;99302.53;1712296;81;21931;-62
2021/08/03 07:55:31;;;;;;;2.22;1.12;;;;;;;18.76;63.19;99300.16;1738597;81;21464;-63
2021/08/03 07:57:58;;;;;;;10.28;2.05;;;;;;;18.72;62.98;99301.39;1739885;81;20867;-63
2021/08/03 08:00:25;;;;;;;11.83;1.92;;;;;;;18.69;63.17;99304.30;1739643;81;20923;-62
2021/08/03 08:02:54;;;;;;;8.55;1.25;;;;;;;18.69;63.17;99291.08;1716168;81;20969;-62
2021/08/03 08:05:21;;;;;;;34.15;3.87;;;;;;;18.66;63.15;99297.96;1711574;81;20934;-62
2021/08/03 08:07:49;;;;;;;10.45;1.72;;;;;;;18.53;62.79;99300.33;1735111;81;20872;-62
2021/08/03 08:10:17;;;;;;;13.83;3.05;;;;;;;18.36;62.98;99295.68;1713383;81;21653;-62
2021/08/03 08:12:45;;;;;;;6.55;1.70;;;;;;;18.37;63.23;99298.66;1738344;81;26582;-62
2021/08/03 08:15:12;;;;;;;16.65;2.33;;;;;;;18.44;63.29;99302.46;1734294;81;21065;-63
2021/08/03 08:17:39;;;;;;;31.95;6.87;;;;;;;18.44;63.24;99296.34;1740531;81;21466;-63
2021/08/03 08:20:18;;;;;;;86.57;14.90;;;;;;;18.38;63.16;99296.88;1712560;81;20932;-62
2021/08/03 08:22:37;;;;;;;35.20;4.40;;;;;;;18.31;63.22;99300.52;1732325;81;21029;-63
2021/08/03 08:25:04;;;;;;;47.62;12.60;;;;;;;18.30;63.29;99306.78;1736315;81;20964;-62
2021/08/03 08:27:31;;;;;;;18.27;5.87;;;;;;;18.25;63.37;99305.02;1739390;81;21037;-62
2021/08/03 08:29:58;;;;;;;39.95;16.60;;;;;;;18.25;63.56;99308.98;1738919;81;20872;-62
2021/08/03 08:32:24;;;;;;;27.50;7.35;;;;;;;18.24;63.41;99312.60;1735076;81;20906;-62
2021/08/03 08:34:51;;;;;;;26.70;8.28;;;;;;;18.23;63.67;99310.91;1734631;81;21041;-62
2021/08/03 08:37:18;;;;;;;16.85;3.65;;;;;;;18.27;63.80;99299.13;1744666;81;20970;-61
2021/08/03 08:39:45;;;;;;;20.10;9.08;;;;;;;18.21;63.50;99306.27;1744900;81;21162;-61
2021/08/03 08:42:12;;;;;;;4.80;2.70;;;;;;;18.37;64.13;99302.63;1747212;81;20911;-62
2021/08/03 08:44:39;;;;;;;23.70;5.60;;;;;;;18.54;64.18;99303.34;1746939;81;20962;-61
2021/08/03 08:47:09;;;;;;;2.70;1.57;;;;;;;18.66;64.05;99303.25;1740887;81;20956;-62
2021/08/03 08:49:36;;;;;;;1.98;1.25;;;;;;;18.76;63.94;99305.45;1746504;81;20971;-62
2021/08/03 08:52:03;;;;;;;30.77;8.60;;;;;;;18.85;63.95;99300.70;1715515;81;21057;-62
2021/08/03 08:54:32;;;;;;;4.60;1.75;;;;;;;18.97;63.91;99300.92;1742249;81;20926;-62
2021/08/03 08:57:00;;;;;;;8.13;2.27;;;;;;;19.13;63.91;99307.47;1746255;81;20928;-62
2021/08/03 08:59:27;;;;;;;5.75;1.50;;;;;;;19.16;63.73;99313.84;1744877;81;20918;-62
2021/08/03 09:01:54;;;;;;;4.33;1.77;;;;;;;19.21;63.74;99315.11;1746153;81;20991;-62
2021/08/03 09:04:25;;;;;;;24.72;2.20;;;;;;;19.33;63.88;99317.13;1765975;80;21035;-62
2021/08/03 09:07:09;;;;;;;49.63;4.40;;;;;;;19.42;63.81;99320.75;1770884;80;21446;-62
2021/08/03 09:09:44;;;;;;;8.13;1.92;;;;;;;19.51;63.59;99325.70;1735509;81;21485;-62
2021/08/03 09:12:13;;;;;;;64.97;6.78;;;;;;;19.59;63.67;99323.20;1760658;79;21474;-62
2021/08/03 09:14:44;;;;;;;74.65;6.85;;;;;;;19.71;63.67;99320.77;1735732;81;20976;-62
2021/08/03 09:17:15;;;;;;;36.25;2.95;;;;;;;19.89;63.63;99316.44;1722331;81;21023;-62
2021/08/03 09:19:42;;;;;;;74.50;6.05;;;;;;;19.99;63.44;99324.36;1760807;80;20928;-61
2021/08/03 09:22:15;;;;;;;;;;;;;;;20.10;63.53;99318.89;1752645;80;21433;-62
2021/08/03 09:24:49;;;;;;;49.15;8.18;;;;;;;20.23;63.21;99311.14;1742923;80;20106;-62
2021/08/03 09:27:39;;;;;;;133.93;17.42;;;;;;;20.34;63.28;99314.94;1766660;79;20947;-62
2021/08/03 09:30:09;;;;;;;57.75;8.13;;;;;;;20.46;63.04;99308.95;1749254;80;21889;-62
2021/08/03 09:32:38;;;;;;;17.05;4.25;;;;;;;20.59;63.26;99310.83;1745986;80;20922;-62
2021/08/03 09:35:14;;;;;;;54.88;5.45;;;;;;;20.77;63.07;99309.05;1766953;80;20922;-62
2021/08/03 09:37:44;;;;;;;29.52;3.47;;;;;;;20.68;62.02;99306.45;1747562;80;21487;-62
2021/08/03 09:40:34;;;;;;;188.32;26.70;;;;;;;20.68;62.02;99306.45;1745552;80;20956;-62
2021/08/03 09:43:13;;;;;;;15.10;2.70;;;;;;;20.55;62.00;99310.27;1731048;81;21612;-62
2021/08/03 09:45:48;;;;;;;33.45;3.20;;;;;;;20.49;62.45;99311.31;1746481;81;21398;-61
2021/08/03 09:48:18;;;;;;;28.60;3.83;;;;;;;20.68;62.67;99317.89;1744107;81;20937;-61
2021/08/03 09:51:05;;;;;;;8.00;1.60;;;;;;;20.90;62.14;99317.16;1736768;81;21459;-62
2021/08/03 09:53:51;;;;;;;18.42;2.50;;;;;;;20.97;61.99;99308.94;1742597;81;20967;-63
2021/08/03 09:56:29;;;;;;;59.10;5.03;;;;;;;21.12;62.00;99318.08;1742353;81;21122;-62
2021/08/03 09:59:04;;;;;;;40.25;5.65;;;;;;;21.39;61.95;99313.71;1750101;81;21568;-62
2021/08/03 10:01:39;;;;;;;6.60;1.90;;;;;;;21.74;61.95;99310.70;1749476;81;33349;-63
2021/08/03 10:04:10;;;;;;;43.05;10.82;;;;;;;21.91;61.50;99309.84;1739243;81;20954;-63
2021/08/03 10:06:39;;;;;;;40.92;4.17;;;;;;;22.18;61.27;99309.36;1736552;80;21027;-63
2021/08/03 10:09:09;;;;;;;45.65;4.72;;;;;;;22.36;60.88;99312.81;1756901;81;21046;-63
2021/08/03 10:11:36;;;;;;;73.05;8.43;;;;;;;22.54;61.26;99308.23;1753975;80;20887;-63
2021/08/03 10:14:04;;;;;;;;;;;;;;;23.00;60.89;99304.78;1753176;81;20888;-62
2021/08/03 10:16:32;;;;;;;90.87;10.03;;;;;;;23.35;60.62;99301.51;1749187;80;20471;-62
2021/08/03 10:19:00;;;;;;;;;;;;;;;23.30;58.73;99301.19;1755835;81;20912;-62
2021/08/03 10:21:37;;;;;;;102.97;11.33;;;;;;;23.23;59.35;99300.17;1750981;81;21122;-63
2021/08/03 10:24:15;;;;;;;218.85;17.42;;;;;;;23.43;59.42;99301.52;1747459;81;21005;-63
2021/08/03 10:26:42;;;;;;;85.70;9.53;;;;;;;23.44;59.02;99303.20;1748019;81;20923;-62
2021/08/03 10:29:24;;;;;;;38.42;3.58;;;;;;;23.45;58.56;99304.03;1721315;81;20890;-63
2021/08/03 10:31:52;;;;;;;96.22;8.43;;;;;;;23.45;58.00;99304.03;1746574;81;20994;-62
2021/08/03 10:34:52;;;;;;;267.55;21.82;;;;;;;23.15;57.28;99301.48;1753236;81;21434;-63
2021/08/03 10:37:22;;;;;;;96.78;11.53;;;;;;;23.08;57.75;99305.78;1729577;81;21001;-63
2021/08/03 10:39:58;;;;;;;104.38;9.73;;;;;;;23.07;57.65;99308.13;1722484;81;20895;-63
2021/08/03 10:42:26;;;;;;;59.40;5.22;;;;;;;23.06;57.18;99305.14;1751762;81;20939;-62
2021/08/03 10:45:02;;;;;;;32.03;3.60;;;;;;;22.95;56.87;99314.22;1749474;81;20936;-62
2021/08/03 10:47:36;;;;;;;21.90;2.45;;;;;;;22.94;56.94;99316.05;1719813;81;21060;-63
2021/08/03 10:50:22;;;;;;;32.90;5.37;;;;;;;22.98;56.85;99316.09;1741999;81;20946;-62
2021/08/03 10:52:52;;;;;;;48.35;4.75;;;;;;;22.92;56.66;99319.37;1728967;81;21010;-61
2021/08/03 10:55:41;;;;;;;126.85;11.50;;;;;;;22.80;56.28;99324.66;1743481;81;21231;-62
2021/08/03 10:58:16;;;;;;;62.62;8.08;;;;;;;22.62;56.24;99317.25;1742573;81;20931;-63
2021/08/03 11:00:58;;;;;;;16.17;2.83;;;;;;;22.62;56.29;99317.25;1741999;81;20989;-63
2021/08/03 11:03:39;;;;;;;29.00;2.50;;;;;;;22.61;56.01;99318.26;1740987;80;20891;-64
2021/08/03 11:06:14;;;;;;;7.35;1.95;;;;;;;22.55;55.78;99317.89;1738540;81;20884;-62
2021/08/03 11:08:48;;;;;;;7.45;1.60;;;;;;;22.45;55.57;99322.49;1739500;81;20896;-62
2021/08/03 11:11:29;;;;;;;31.85;2.55;;;;;;;22.17;55.25;99326.29;1746940;81;21488;-62
2021/08/03 11:14:06;;;;;;;51.83;3.10;;;;;;;21.77;55.08;99339.63;1739450;81;21010;-63
2021/08/03 11:16:38;;;;;;;14.78;2.20;;;;;;;21.00;55.19;99362.58;1744953;80;20957;-63
2021/08/03 11:19:07;;;;;;;5.00;1.27;;;;;;;20.17;55.30;99377.48;1742007;81;21422;-62
2021/08/03 11:21:50;;;;;;;3.80;1.22;;;;;;;19.41;55.74;99374.20;1746071;81;21461;-62
2021/08/03 11:24:35;;;;;;;2.90;0.70;;;;;;;18.83;56.21;99377.19;1742307;81;20903;-62
2021/08/03 11:27:02;;;;;;;4.42;1.57;;;;;;;18.20;56.22;99382.52;1716137;81;22149;-62
2021/08/03 11:29:41;;;;;;;2.65;0.85;;;;;;;17.66;56.74;99382.50;1743691;81;21406;-62
2021/08/03 11:32:10;;;;;;;1.87;0.85;;;;;;;17.38;57.23;99383.08;1741123;81;20899;-62
2021/08/03 11:34:47;;;;;;;1.50;0.80;;;;;;;17.14;57.39;99390.70;1713998;81;20903;-62
2021/08/03 11:37:21;;;;;;;2.05;0.70;;;;;;;16.91;57.59;99383.27;1713988;81;21097;-62
2021/08/03 11:39:58;;;;;;;3.77;0.85;;;;;;;16.65;58.07;99382.65;1716664;81;21221;-62
2021/08/03 11:42:41;;;;;;;3.02;1.00;;;;;;;16.64;58.58;99385.42;1740755;80;20934;-62
2021/08/03 11:45:15;;;;;;;2.05;0.90;;;;;;;16.67;58.78;99386.02;1735910;81;21053;-62
2021/08/03 11:47:53;;;;;;;2.45;0.88;;;;;;;16.76;59.19;99385.32;1730453;81;21002;-62
2021/08/03 11:50:39;;;;;;;3.40;1.20;;;;;;;16.85;59.33;99375.02;1744869;81;20919;-62